createdAt,value
2023-03-31T00:01:42.517Z,98199.69
2023-03-31T00:04:13.775Z,98190.97
2023-03-31T00:06:44.588Z,98188.59
2023-03-31T00:09:16.251Z,98182.38
2023-03-31T00:11:46.529Z,98184.69
2023-03-31T00:14:15.856Z,98186.28
2023-03-31T00:16:46.543Z,98183.53
2023-03-31T00:19:20.181Z,98175.47
2023-03-31T00:21:51.827Z,98168.72
2023-03-31T00:24:20.399Z,98176.28
2023-03-31T00:26:48.990Z,98172.16
2023-03-31T00:29:17.531Z,98160.69
2023-03-31T00:31:47.461Z,98165.78
2023-03-31T00:34:16.526Z,98162.84
2023-03-31T00:36:47.795Z,98155.75
2023-03-31T00:39:18.284Z,98142.38
2023-03-31T00:41:47.041Z,98150.97
2023-03-31T00:44:19.233Z,98149.81
2023-03-31T00:46:54.709Z,98145.56
2023-03-31T00:49:28.820Z,98142.91
2023-03-31T00:52:05.510Z,98144.91
2023-03-31T00:54:35.931Z,98146.41
2023-03-31T00:57:07.894Z,98144.91
2023-03-31T00:59:40.442Z,98142.09
2023-03-31T01:02:11.732Z,98151.19
2023-03-31T01:04:44.953Z,98150.00
2023-03-31T01:07:23.637Z,98145.59
2023-03-31T01:09:55.332Z,98138.03
2023-03-31T01:12:25.212Z,98137.34
2023-03-31T01:14:55.346Z,98135.53
2023-03-31T01:17:25.559Z,98127.31
2023-03-31T01:20:11.947Z,98131.44
2023-03-31T01:23:08.760Z,98121.41
2023-03-31T01:26:15.427Z,98118.09
2023-03-31T01:28:52.819Z,98111.03
2023-03-31T01:31:54.383Z,98114.78
2023-03-31T01:35:07.603Z,98111.84
2023-03-31T01:38:04.423Z,98108.69
2023-03-31T01:41:09.717Z,98103.13
2023-03-31T01:43:47.940Z,98104.31
2023-03-31T01:46:24.965Z,98103.59
2023-03-31T01:49:03.498Z,98104.59
2023-03-31T01:51:36.928Z,98098.16
2023-03-31T01:54:13.344Z,98097.34
2023-03-31T01:56:47.924Z,98103.91
2023-03-31T01:59:27.342Z,98099.47
2023-03-31T02:02:01.171Z,98097.19
2023-03-31T02:04:35.318Z,98097.31
2023-03-31T02:07:09.154Z,98101.28
2023-03-31T02:09:44.238Z,98099.97
2023-03-31T02:12:16.548Z,98099.47
2023-03-31T02:14:48.862Z,98097.50
2023-03-31T02:17:21.645Z,98098.34
2023-03-31T02:19:55.035Z,98091.06
2023-03-31T02:22:25.312Z,98088.09
2023-03-31T02:24:56.804Z,98096.50
2023-03-31T02:27:30.043Z,98083.66
2023-03-31T02:29:59.373Z,98087.13
2023-03-31T02:32:33.597Z,98087.78
2023-03-31T02:35:02.974Z,98084.47
2023-03-31T02:37:32.404Z,98091.75
2023-03-31T02:40:05.350Z,98089.75
2023-03-31T02:42:35.825Z,98085.78
2023-03-31T02:45:05.916Z,98083.97
2023-03-31T02:47:35.804Z,98092.38
2023-03-31T02:50:06.575Z,98088.94
2023-03-31T02:52:58.855Z,98083.84
2023-03-31T02:55:54.516Z,98087.31
2023-03-31T02:58:56.052Z,98089.75
2023-03-31T03:01:42.117Z,98088.59
2023-03-31T03:04:26.033Z,98083.53
2023-03-31T03:07:05.404Z,98088.59
2023-03-31T03:09:46.393Z,98088.31
2023-03-31T03:12:23.464Z,98090.13
2023-03-31T03:14:57.582Z,98090.38
2023-03-31T03:17:30.798Z,98089.09
2023-03-31T03:20:02.805Z,98094.50
2023-03-31T03:22:31.376Z,98095.69
2023-03-31T03:25:00.176Z,98090.41
2023-03-31T03:27:28.888Z,98087.47
2023-03-31T03:29:58.851Z,98096.16
2023-03-31T03:32:27.409Z,98091.06
2023-03-31T03:34:56.239Z,98093.34
2023-03-31T03:37:24.868Z,98085.97
2023-03-31T03:39:53.820Z,98091.22
2023-03-31T03:42:22.900Z,98089.41
2023-03-31T03:44:52.157Z,98095.31
2023-03-31T03:47:22.338Z,98092.88
2023-03-31T03:49:52.006Z,98097.31
2023-03-31T03:52:20.672Z,98097.66
2023-03-31T03:54:49.007Z,98098.31
2023-03-31T03:57:17.825Z,98100.28
2023-03-31T03:59:46.480Z,98101.59
2023-03-31T04:02:15.371Z,98101.78
2023-03-31T04:04:45.419Z,98106.03
2023-03-31T04:07:14.075Z,98106.38
2023-03-31T04:09:42.688Z,98104.22
2023-03-31T04:12:11.333Z,98107.34
2023-03-31T04:14:40.129Z,98116.06
2023-03-31T04:17:11.074Z,98109.94
2023-03-31T04:19:42.913Z,98118.16
2023-03-31T04:22:15.455Z,98121.28
2023-03-31T04:24:46.737Z,98114.69
2023-03-31T04:27:18.055Z,98123.06
2023-03-31T04:29:55.373Z,98127.03
2023-03-31T04:32:24.315Z,98121.94
2023-03-31T04:35:03.005Z,98128.69
2023-03-31T04:37:35.288Z,98127.69
2023-03-31T04:40:10.193Z,98132.91
2023-03-31T04:42:38.830Z,98139.00
2023-03-31T04:45:08.153Z,98134.56
2023-03-31T04:47:37.492Z,98144.59
2023-03-31T04:50:07.125Z,98148.06
2023-03-31T04:52:37.456Z,98143.63
2023-03-31T04:55:06.656Z,98147.09
2023-03-31T04:57:35.680Z,98156.13
2023-03-31T05:00:07.477Z,98156.00
2023-03-31T05:02:36.597Z,98154.69
2023-03-31T05:05:06.571Z,98161.75
2023-03-31T05:07:36.611Z,98159.47
2023-03-31T05:10:05.847Z,98161.09
2023-03-31T05:12:37.349Z,98160.63
2023-03-31T05:15:07.403Z,98161.78
2023-03-31T05:17:38.323Z,98168.22
2023-03-31T05:20:08.688Z,98172.34
2023-03-31T05:22:43.681Z,98168.50
2023-03-31T05:25:15.050Z,98176.28
2023-03-31T05:27:43.649Z,98176.41
2023-03-31T05:30:12.878Z,98184.63
2023-03-31T05:32:41.949Z,98188.94
2023-03-31T05:35:11.746Z,98191.56
2023-03-31T05:37:41.680Z,98194.00
2023-03-31T05:40:12.061Z,98195.16
2023-03-31T05:42:42.578Z,98202.09
2023-03-31T05:45:12.789Z,98205.56
2023-03-31T05:47:41.503Z,98209.81
2023-03-31T05:50:12.607Z,98210.97
2023-03-31T05:52:45.141Z,98228.44
2023-03-31T05:55:13.815Z,98236.16
2023-03-31T05:57:42.707Z,98237.97
2023-03-31T06:00:12.835Z,98244.69
2023-03-31T06:02:42.258Z,98249.81
2023-03-31T06:05:11.139Z,98242.25
2023-03-31T06:07:39.751Z,98253.91
2023-03-31T06:10:11.056Z,98255.56
2023-03-31T06:12:40.111Z,98253.91
2023-03-31T06:15:09.602Z,98250.47
2023-03-31T06:17:38.815Z,98258.53
2023-03-31T06:20:24.055Z,98269.56
2023-03-31T06:22:56.439Z,98277.13
2023-03-31T06:25:26.656Z,98280.94
2023-03-31T06:27:56.032Z,98284.69
2023-03-31T06:30:25.272Z,98288.78
2023-03-31T06:32:54.215Z,98287.47
2023-03-31T06:35:22.731Z,98290.09
2023-03-31T06:37:51.327Z,98295.03
2023-03-31T06:40:20.185Z,98298.66
2023-03-31T06:42:50.227Z,98304.75
2023-03-31T06:45:19.498Z,98310.84
2023-03-31T06:47:48.111Z,98311.47
2023-03-31T06:50:16.866Z,98316.94
2023-03-31T06:52:45.325Z,98319.94
2023-03-31T06:55:15.939Z,98326.66
2023-03-31T06:57:44.539Z,98324.34
2023-03-31T07:00:16.188Z,98332.56
2023-03-31T07:02:45.002Z,98345.75
2023-03-31T07:05:16.834Z,98344.78
2023-03-31T07:07:46.478Z,98349.22
2023-03-31T07:10:15.146Z,98346.75
2023-03-31T07:12:43.627Z,98358.09
2023-03-31T07:15:14.127Z,98353.81
2023-03-31T07:17:43.310Z,98367.31
2023-03-31T07:20:15.378Z,98368.50
2023-03-31T07:22:44.229Z,98377.72
2023-03-31T07:25:14.455Z,98383.31
2023-03-31T07:27:43.699Z,98392.34
2023-03-31T07:30:16.502Z,98401.06
2023-03-31T07:32:45.560Z,98407.34
2023-03-31T07:35:14.402Z,98410.31
2023-03-31T07:37:44.799Z,98409.31
2023-03-31T07:40:17.085Z,98407.97
2023-03-31T07:42:49.292Z,98412.09
2023-03-31T07:45:21.534Z,98410.91
2023-03-31T07:47:51.225Z,98418.84
2023-03-31T07:50:21.009Z,98420.97
2023-03-31T07:52:49.663Z,98424.59
2023-03-31T07:55:20.218Z,98429.69
2023-03-31T07:57:49.014Z,98441.22
2023-03-31T08:00:21.624Z,98437.97
2023-03-31T08:02:50.625Z,98442.06
2023-03-31T08:05:21.797Z,98449.47
2023-03-31T08:07:51.830Z,98445.50
2023-03-31T08:10:23.466Z,98454.72
2023-03-31T08:12:52.341Z,98460.28
2023-03-31T08:15:22.435Z,98464.25
2023-03-31T08:17:51.091Z,98473.31
2023-03-31T08:20:20.060Z,98469.88
2023-03-31T08:22:49.617Z,98477.28
2023-03-31T08:25:18.626Z,98479.09
2023-03-31T08:27:49.424Z,98477.66
2023-03-31T08:30:19.665Z,98485.88
2023-03-31T08:32:49.766Z,98489.50
2023-03-31T08:35:18.637Z,98500.06
2023-03-31T08:37:48.194Z,98502.03
2023-03-31T08:40:22.433Z,98502.53
2023-03-31T08:42:54.856Z,98502.50
2023-03-31T08:45:26.785Z,98517.53
2023-03-31T08:48:03.567Z,98511.94
2023-03-31T08:50:36.847Z,98518.84
2023-03-31T08:53:09.301Z,98520.66
2023-03-31T08:55:51.653Z,98516.53
2023-03-31T08:58:32.464Z,98540.44
2023-03-31T09:01:08.381Z,98537.47
2023-03-31T09:03:48.419Z,98536.81
2023-03-31T09:06:24.298Z,98541.25
2023-03-31T09:08:56.260Z,98543.06
2023-03-31T09:11:35.222Z,98547.16
2023-03-31T09:14:19.567Z,98537.28
2023-03-31T09:16:55.948Z,98547.84
2023-03-31T09:19:37.252Z,98547.31
2023-03-31T09:22:13.037Z,98542.53
2023-03-31T09:24:52.319Z,98550.28
2023-03-31T09:27:23.370Z,98556.72
2023-03-31T09:29:57.824Z,98556.88
2023-03-31T09:32:28.254Z,98575.84
2023-03-31T09:35:03.305Z,98567.94
2023-03-31T09:37:34.343Z,98585.94
2023-03-31T09:40:08.220Z,98582.13
2023-03-31T09:42:38.269Z,98592.00
2023-03-31T09:45:08.262Z,98592.19
2023-03-31T09:47:40.834Z,98597.78
2023-03-31T09:50:12.337Z,98602.91
2023-03-31T09:52:45.238Z,98611.97
2023-03-31T09:55:35.928Z,98612.94
2023-03-31T09:58:09.595Z,98613.28
2023-03-31T10:00:38.282Z,98626.63
2023-03-31T10:03:08.852Z,98625.81
2023-03-31T10:05:43.000Z,98630.75
2023-03-31T10:08:30.731Z,98637.69
2023-03-31T10:11:11.791Z,98637.88
2023-03-31T10:13:48.290Z,98640.00
2023-03-31T10:16:23.868Z,98640.50
2023-03-31T10:18:52.888Z,98645.28
2023-03-31T10:21:27.319Z,98653.19
2023-03-31T10:23:56.529Z,98649.56
2023-03-31T10:26:28.483Z,98657.16
2023-03-31T10:28:57.183Z,98656.34
2023-03-31T10:31:29.593Z,98666.38
2023-03-31T10:34:00.117Z,98663.44
2023-03-31T10:36:32.312Z,98668.38
2023-03-31T10:39:01.282Z,98672.69
2023-03-31T10:41:32.269Z,98675.31
2023-03-31T10:44:02.622Z,98677.13
2023-03-31T10:46:48.479Z,98686.34
2023-03-31T10:49:18.349Z,98689.09
2023-03-31T10:51:57.904Z,98686.25
2023-03-31T10:54:27.344Z,98692.84
2023-03-31T10:56:59.269Z,98698.03
2023-03-31T10:59:43.735Z,98694.75
2023-03-31T11:02:54.356Z,98701.66
2023-03-31T11:05:32.797Z,98714.38
2023-03-31T11:08:20.077Z,98711.88
2023-03-31T11:11:14.892Z,98718.81
2023-03-31T11:13:53.230Z,98721.63
2023-03-31T11:16:29.002Z,98729.22
2023-03-31T11:19:10.819Z,98721.81
2023-03-31T11:21:56.779Z,98730.72
2023-03-31T11:24:41.318Z,98734.84
2023-03-31T11:27:28.422Z,98741.28
2023-03-31T11:30:04.232Z,98746.25
2023-03-31T11:32:50.210Z,98749.03
2023-03-31T11:35:36.915Z,98746.88
2023-03-31T11:38:24.998Z,98761.41
2023-03-31T11:41:02.752Z,98770.84
2023-03-31T11:43:37.821Z,98767.47
2023-03-31T11:46:12.579Z,98774.22
2023-03-31T11:48:48.362Z,98773.22
2023-03-31T11:51:23.671Z,98780.34
2023-03-31T11:53:55.257Z,98786.97
2023-03-31T11:56:32.198Z,98784.50
2023-03-31T11:59:02.498Z,98790.59
2023-03-31T12:01:44.159Z,98794.38
2023-03-31T12:04:25.406Z,98798.47
2023-03-31T12:07:02.299Z,98801.72
2023-03-31T12:09:41.239Z,98799.38
2023-03-31T12:12:18.516Z,98794.09
2023-03-31T12:14:51.752Z,98802.72
2023-03-31T12:17:24.443Z,98811.47
2023-03-31T12:19:56.887Z,98806.97
2023-03-31T12:22:31.436Z,98816.06
2023-03-31T12:25:01.165Z,98804.97
2023-03-31T12:27:38.057Z,98804.63
2023-03-31T12:30:13.093Z,98812.94
2023-03-31T12:32:46.250Z,98801.84
2023-03-31T12:35:25.297Z,98804.53
2023-03-31T12:38:14.603Z,98805.91
2023-03-31T12:40:52.967Z,98796.53
2023-03-31T12:43:54.416Z,98794.59
2023-03-31T12:47:01.506Z,98802.69
2023-03-31T12:49:41.556Z,98810.28
2023-03-31T12:52:17.420Z,98813.72
2023-03-31T12:55:18.302Z,98817.06
2023-03-31T12:57:47.326Z,98820.78
2023-03-31T13:00:30.448Z,98827.91
2023-03-31T13:03:38.595Z,98830.94
2023-03-31T13:06:08.055Z,98832.50
2023-03-31T13:08:54.704Z,98837.53
2023-03-31T13:11:36.813Z,98844.16
2023-03-31T13:14:07.999Z,98848.88
2023-03-31T13:16:38.129Z,98861.97
2023-03-31T13:19:07.614Z,98867.31
2023-03-31T13:21:55.110Z,98873.91
2023-03-31T13:24:25.000Z,98877.84
2023-03-31T13:26:57.350Z,98879.94
2023-03-31T13:29:28.943Z,98881.06
2023-03-31T13:32:24.121Z,98889.47
2023-03-31T13:35:00.738Z,98896.25
2023-03-31T13:37:58.421Z,98894.81
2023-03-31T13:40:50.985Z,98905.25
2023-03-31T13:43:45.583Z,98905.78
2023-03-31T13:46:51.443Z,98909.81
2023-03-31T13:49:50.393Z,98915.44
2023-03-31T13:52:32.880Z,98924.88
2023-03-31T13:55:45.614Z,98930.97
2023-03-31T13:58:42.700Z,98931.78
2023-03-31T14:01:38.212Z,98935.09
2023-03-31T14:04:24.075Z,98935.59
2023-03-31T14:06:58.400Z,98944.00
2023-03-31T14:09:32.341Z,98938.41
2023-03-31T14:12:01.388Z,98944.84
2023-03-31T14:14:30.068Z,98952.47
2023-03-31T14:17:02.032Z,98954.25
2023-03-31T14:20:08.077Z,98954.22
2023-03-31T14:22:49.074Z,98958.94
2023-03-31T14:25:29.884Z,98957.06
2023-03-31T14:28:13.833Z,98959.28
2023-03-31T14:30:52.981Z,98967.69
2023-03-31T14:33:34.581Z,98964.19
2023-03-31T14:36:13.380Z,98965.28
2023-03-31T14:38:43.494Z,98971.91
2023-03-31T14:41:30.076Z,98971.44
2023-03-31T14:44:04.230Z,98981.63
2023-03-31T14:46:34.657Z,98996.88
2023-03-31T14:49:09.054Z,99000.41
2023-03-31T14:51:37.539Z,99004.06
2023-03-31T14:54:07.678Z,99007.31
2023-03-31T14:56:40.271Z,99016.44
2023-03-31T14:59:10.267Z,99018.41
2023-03-31T15:01:40.208Z,99021.72
2023-03-31T15:04:13.363Z,99022.38
2023-03-31T15:06:42.911Z,99020.22
2023-03-31T15:09:22.703Z,99034.63
2023-03-31T15:11:57.447Z,99033.63
2023-03-31T15:14:30.383Z,99039.25
2023-03-31T15:16:59.048Z,99042.06
2023-03-31T15:19:31.264Z,99046.34
2023-03-31T15:22:05.282Z,99044.84
2023-03-31T15:24:39.625Z,99051.13
2023-03-31T15:27:18.068Z,99052.13
2023-03-31T15:29:51.307Z,99063.00
2023-03-31T15:32:27.111Z,99069.75
2023-03-31T15:35:02.501Z,99084.09
2023-03-31T15:37:41.998Z,99085.03
2023-03-31T15:40:22.707Z,99100.19
2023-03-31T15:43:06.041Z,99100.19
2023-03-31T15:45:51.391Z,99106.47
2023-03-31T15:48:28.622Z,99114.09
2023-03-31T15:51:02.906Z,99113.28
2023-03-31T15:53:37.120Z,99114.72
2023-03-31T15:56:07.828Z,99122.66
2023-03-31T15:59:05.718Z,99123.13
2023-03-31T16:01:36.740Z,99134.19
2023-03-31T16:04:09.994Z,99134.06
2023-03-31T16:06:47.703Z,99141.28
2023-03-31T16:09:23.690Z,99146.38
2023-03-31T16:11:56.271Z,99148.66
2023-03-31T16:14:29.993Z,99153.59
2023-03-31T16:17:06.671Z,99163.63
2023-03-31T16:19:47.500Z,99161.41
2023-03-31T16:22:19.931Z,99165.59
2023-03-31T16:24:48.937Z,99175.28
2023-03-31T16:27:18.829Z,99177.63
2023-03-31T16:29:47.632Z,99174.63
2023-03-31T16:32:18.628Z,99195.28
2023-03-31T16:34:59.278Z,99190.00
2023-03-31T16:37:32.067Z,99194.47
2023-03-31T16:40:00.564Z,99200.22
2023-03-31T16:42:30.824Z,99206.03
2023-03-31T16:45:12.713Z,99215.66
2023-03-31T16:47:45.336Z,99216.91
2023-03-31T16:50:15.528Z,99218.59
2023-03-31T16:52:44.191Z,99225.13
2023-03-31T16:55:12.887Z,99228.94
2023-03-31T16:57:43.086Z,99235.69
2023-03-31T17:00:13.331Z,99233.50
2023-03-31T17:02:41.932Z,99236.34
2023-03-31T17:05:13.512Z,99233.69
2023-03-31T17:07:42.701Z,99238.25
2023-03-31T17:10:13.062Z,99247.31
2023-03-31T17:12:43.120Z,99249.94
2023-03-31T17:15:12.684Z,99256.78
2023-03-31T17:17:41.376Z,99255.28
2023-03-31T17:20:11.690Z,99256.13
2023-03-31T17:22:41.029Z,99266.31
2023-03-31T17:25:11.551Z,99273.84
2023-03-31T17:27:40.184Z,99281.03
2023-03-31T17:30:11.360Z,99299.97
2023-03-31T17:32:40.276Z,99302.09
2023-03-31T17:35:10.669Z,99309.09
2023-03-31T17:37:39.693Z,99315.81
2023-03-31T17:40:11.766Z,99316.97
2023-03-31T17:42:41.076Z,99330.59
2023-03-31T17:45:13.140Z,99329.63
2023-03-31T17:47:42.261Z,99344.03
2023-03-31T17:50:11.975Z,99351.13
2023-03-31T17:52:40.714Z,99345.47
2023-03-31T17:55:09.948Z,99351.72
2023-03-31T17:57:40.652Z,99362.25
2023-03-31T18:00:12.383Z,99362.44
2023-03-31T18:02:41.809Z,99380.88
2023-03-31T18:05:12.209Z,99382.03
2023-03-31T18:07:41.682Z,99380.34
2023-03-31T18:10:12.366Z,99383.69
2023-03-31T18:12:41.529Z,99389.94
2023-03-31T18:15:12.633Z,99389.41
2023-03-31T18:17:41.188Z,99399.41
2023-03-31T18:20:10.689Z,99398.88
2023-03-31T18:22:39.305Z,99405.28
2023-03-31T18:25:09.025Z,99403.75
2023-03-31T18:27:37.873Z,99410.84
2023-03-31T18:30:07.524Z,99417.53
2023-03-31T18:32:38.943Z,99421.88
2023-03-31T18:35:08.367Z,99422.44
2023-03-31T18:37:36.996Z,99438.28
2023-03-31T18:40:06.078Z,99438.81
2023-03-31T18:42:34.672Z,99450.78
2023-03-31T18:45:03.328Z,99449.25
2023-03-31T18:47:32.084Z,99452.44
2023-03-31T18:50:02.578Z,99466.75
2023-03-31T18:52:31.909Z,99467.19
2023-03-31T18:55:01.030Z,99468.28
2023-03-31T18:57:29.919Z,99477.16
2023-03-31T18:59:58.693Z,99486.47
2023-03-31T19:02:27.869Z,99490.88
2023-03-31T19:04:56.560Z,99497.97
2023-03-31T19:07:26.854Z,99499.91
2023-03-31T19:09:55.484Z,99507.97
2023-03-31T19:12:24.097Z,99512.13
2023-03-31T19:14:52.954Z,99523.63
2023-03-31T19:17:21.669Z,99526.13
2023-03-31T19:19:50.446Z,99532.94
2023-03-31T19:22:19.057Z,99532.78
2023-03-31T19:24:49.258Z,99546.94
2023-03-31T19:27:17.994Z,99549.16
2023-03-31T19:29:46.706Z,99548.44
2023-03-31T19:32:15.384Z,99562.34
2023-03-31T19:34:45.725Z,99559.84
2023-03-31T19:37:14.439Z,99561.22
2023-03-31T19:39:43.163Z,99566.50
2023-03-31T19:42:13.023Z,99572.75
2023-03-31T19:44:41.808Z,99575.38
2023-03-31T19:47:11.673Z,99573.88
2023-03-31T19:49:40.306Z,99580.09
2023-03-31T19:52:11.498Z,99585.34
2023-03-31T19:54:40.292Z,99593.56
2023-03-31T19:57:09.270Z,99596.31
2023-03-31T19:59:39.658Z,99597.69
2023-03-31T20:02:09.825Z,99603.38
2023-03-31T20:04:38.932Z,99608.78
2023-03-31T20:07:07.622Z,99615.72
2023-03-31T20:09:36.644Z,99620.31
2023-03-31T20:12:05.582Z,99617.25
2023-03-31T20:14:34.425Z,99634.72
2023-03-31T20:17:05.235Z,99642.63
2023-03-31T20:19:34.872Z,99641.63
2023-03-31T20:22:03.548Z,99649.53
2023-03-31T20:24:32.305Z,99646.34
2023-03-31T20:27:01.908Z,99661.31
2023-03-31T20:29:30.700Z,99657.84
2023-03-31T20:31:59.391Z,99668.25
2023-03-31T20:34:29.607Z,99669.47
2023-03-31T20:36:58.466Z,99673.81
2023-03-31T20:39:27.316Z,99673.22
2023-03-31T20:41:56.228Z,99680.41
2023-03-31T20:44:25.055Z,99692.75
2023-03-31T20:46:55.408Z,99698.44
2023-03-31T20:49:24.027Z,99700.78
2023-03-31T20:51:54.147Z,99704.22
2023-03-31T20:54:22.806Z,99707.94
2023-03-31T20:56:51.997Z,99711.69
2023-03-31T20:59:21.846Z,99720.69
2023-03-31T21:01:50.475Z,99718.03
2023-03-31T21:04:19.111Z,99726.22
2023-03-31T21:06:49.059Z,99723.59
2023-03-31T21:09:19.215Z,99725.41
2023-03-31T21:11:48.126Z,99731.50
2023-03-31T21:14:17.722Z,99726.22
2023-03-31T21:16:46.401Z,99733.16
2023-03-31T21:19:15.053Z,99728.88
2023-03-31T21:21:43.757Z,99737.59
2023-03-31T21:24:14.275Z,99737.84
2023-03-31T21:26:44.460Z,99741.06
2023-03-31T21:29:13.266Z,99743.94
2023-03-31T21:31:45.319Z,99748.38
2023-03-31T21:34:14.803Z,99757.25
2023-03-31T21:36:43.425Z,99755.59
2023-03-31T21:39:12.123Z,99755.59
2023-03-31T21:41:41.996Z,99757.38
2023-03-31T21:44:12.536Z,99761.78
2023-03-31T21:46:41.618Z,99763.72
2023-03-31T21:49:10.433Z,99766.50
2023-03-31T21:51:39.094Z,99764.13
2023-03-31T21:54:07.866Z,99770.94
2023-03-31T21:56:36.640Z,99784.34
2023-03-31T21:59:05.395Z,99781.00
2023-03-31T22:01:35.447Z,99785.56
2023-03-31T22:04:04.042Z,99784.75
2023-03-31T22:06:34.681Z,99790.97
2023-03-31T22:09:03.450Z,99792.88
2023-03-31T22:11:32.238Z,99809.66
2023-03-31T22:14:00.818Z,99799.94
2023-03-31T22:16:29.417Z,99812.97
2023-03-31T22:19:00.446Z,99812.97
2023-03-31T22:21:29.556Z,99812.28
2023-03-31T22:24:00.194Z,99819.22
2023-03-31T22:26:31.561Z,99823.50
2023-03-31T22:29:00.248Z,99823.41
2023-03-31T22:31:28.720Z,99832.28
2023-03-31T22:33:58.913Z,99840.88
2023-03-31T22:36:27.845Z,99849.59
2023-03-31T22:38:56.307Z,99837.25
2023-03-31T22:41:24.952Z,99845.28
2023-03-31T22:43:53.616Z,99845.28
2023-03-31T22:46:22.258Z,99843.63
2023-03-31T22:48:51.806Z,99846.25
2023-03-31T22:51:22.351Z,99856.66
2023-03-31T22:53:52.802Z,99853.88
2023-03-31T22:56:23.315Z,99849.84
2023-03-31T22:58:52.869Z,99851.38
2023-03-31T23:01:22.850Z,99855.00
2023-03-31T23:03:51.727Z,99859.44
2023-03-31T23:06:22.083Z,99862.06
2023-03-31T23:08:50.828Z,99872.59
2023-03-31T23:11:19.437Z,99873.53
2023-03-31T23:13:48.301Z,99874.25
2023-03-31T23:16:20.090Z,99875.22
2023-03-31T23:18:51.983Z,99886.69
2023-03-31T23:21:24.657Z,99886.69
2023-03-31T23:23:55.716Z,99890.19
2023-03-31T23:26:26.592Z,99891.03
2023-03-31T23:28:56.046Z,99892.56
2023-03-31T23:31:27.035Z,99902.38
2023-03-31T23:33:55.885Z,99899.84
2023-03-31T23:36:26.757Z,99911.94
2023-03-31T23:38:57.791Z,99906.69
2023-03-31T23:41:26.715Z,99916.38
2023-03-31T23:43:57.966Z,99908.47
2023-03-31T23:46:27.122Z,99913.63
2023-03-31T23:48:56.018Z,99926.91
2023-03-31T23:51:26.439Z,99925.34
2023-03-31T23:53:55.066Z,99927.88
2023-03-31T23:56:23.829Z,99929.78
2023-03-31T23:58:53.099Z,99934.09
